Terminal Aerodrome Forecast
Issued by NWS

Home | Current Version | Previous Version | Text Only | Print | Product List | Glossary On
Versions: 1 2 3 4 5 6 7 8 9 10 11 12 13 14 15
000
FTAK31 PANC 201135
TAFAVD
TAF
PAVD 201135Z 2012/2112 VRB02KT P6SM -SHRA SCT006 OVC045
     FM202000 09006KT 6SM -RA BKN015 OVC025
     FM210600 05008KT P6SM -SHRA BKN025 OVC050
      AMD LTD TO CLD VIS AND WIND=

USA.gov is the U.S. government's official web portal to all federal, state and local government web resources and services.